Urb Coamo Gdns, Puerto Rico
Current Conditions -  °F | °C
As of 1:50 PM on Monday 24 Nov 2014 (Local Time) from TJPS Reporting Station
Few Clouds Few Clouds  
Wind Chill: 90°   Ceiling: Unl
Heat Index: 102°   Visibility: 10mi
Dew Point: 77°   Wind: 12mph
Humidity: 66%   Direction: 140°SE
Pressure: 29.95"   Gusts: 17mph
Location:  18.0836°N, 66.3566°W
Report Text: TJPS 241750Z 14010G15KT 10SM FEW030 32/25 A2995
Loading
Personal Weather Stations






























Interactive Weather Map New forecast layout! Learn more

10-Day Weather Forecast

Advertisements
Track Severe Weather on mobile